YEM weather

Manitoulin East Municipal Airport
Manitowaning, Ontario, Canada

Public forecast

Using degrees Celsius for public forecast. Weather courtesy of forecast.io.

METAR (pilot weather report)

Closest report is Gore Bay Manitoulin Airport, 29.8 nm (55.2 km) W. Retrieved 2019/05/22 04:00 UTC (49 minutes ago):

CYZE 220400Z AUTO 18003KT 120V190 9SM BKN250 07/05 A3018 RMK SLP226

TAF (pilot weather forecast)

Forecast is more than 6 hours old.

Closest forecast is Gore Bay Manitoulin Airport, 29.8 nm (55.2 km) W. Retrieved 2019/05/21 20:00 UTC (9 hours ago):

TAF CYZE 211938Z 2120/2122 25008KT P6SM SKC RMK FCST BASED ON AUTO OBS. NXT FCST WILL BE ISSUED AT 220945Z